createdAt,value
2018-09-24T00:01:14.012Z,61.10
2018-09-24T00:06:17.765Z,61.40
2018-09-24T00:11:21.668Z,60.90
2018-09-24T00:16:25.332Z,60.90
2018-09-24T00:21:29.559Z,60.60
2018-09-24T00:26:33.743Z,61.10
2018-09-24T00:31:37.385Z,60.70
2018-09-24T00:36:43.783Z,60.90
2018-09-24T00:41:47.850Z,62.20
2018-09-24T00:46:51.503Z,61.90
2018-09-24T00:51:55.123Z,62.50
2018-09-24T00:57:09.134Z,63.10
2018-09-24T01:02:13.128Z,63.70
2018-09-24T01:07:16.760Z,63.20
2018-09-24T01:12:23.995Z,63.40
2018-09-24T01:17:27.799Z,62.90
2018-09-24T01:22:32.227Z,63.30
2018-09-24T01:27:37.282Z,63.70
2018-09-24T01:32:40.890Z,63.70
2018-09-24T01:37:44.955Z,63.40
2018-09-24T01:42:48.889Z,64.10
2018-09-24T01:47:52.522Z,63.90
2018-09-24T01:53:01.300Z,64.00
2018-09-24T01:58:04.901Z,62.90
2018-09-24T02:03:10.434Z,61.70
2018-09-24T02:08:15.002Z,60.60
2018-09-24T02:13:18.661Z,60.60
2018-09-24T02:18:22.964Z,59.80
2018-09-24T02:23:26.547Z,60.70
2018-09-24T02:28:30.674Z,61.40
2018-09-24T02:33:34.735Z,61.20
2018-09-24T02:38:40.171Z,61.30
2018-09-24T02:43:43.793Z,62.50
2018-09-24T02:48:47.449Z,61.60
2018-09-24T02:53:51.119Z,61.30
2018-09-24T02:59:13.278Z,60.50
2018-09-24T03:04:16.944Z,64.40
2018-09-24T03:09:20.541Z,62.70
2018-09-24T03:14:27.687Z,62.50
2018-09-24T03:19:32.035Z,62.70
2018-09-24T03:24:35.943Z,62.30
2018-09-24T03:29:39.552Z,61.40
2018-09-24T03:34:43.152Z,60.00
2018-09-24T03:39:48.060Z,59.40
2018-09-24T03:44:52.180Z,59.30
2018-09-24T03:49:55.786Z,59.20
2018-09-24T03:54:59.416Z,59.10
2018-09-24T04:00:03.217Z,59.30
2018-09-24T04:05:12.206Z,58.60
2018-09-24T04:10:28.819Z,58.80
2018-09-24T04:15:41.053Z,58.90
2018-09-24T04:20:50.114Z,59.40
2018-09-24T04:25:59.936Z,58.80
2018-09-24T04:31:08.772Z,58.20
2018-09-24T04:36:17.656Z,57.70
2018-09-24T04:41:26.616Z,57.60
2018-09-24T04:46:42.862Z,58.10
2018-09-24T04:51:51.780Z,58.60
2018-09-24T04:57:01.128Z,58.00
2018-09-24T05:02:10.089Z,57.40
2018-09-24T05:07:18.919Z,56.80
2018-09-24T05:12:28.320Z,56.80
2018-09-24T05:17:37.265Z,56.30
2018-09-24T05:22:46.216Z,56.80
2018-09-24T05:27:55.095Z,56.80
2018-09-24T05:33:04.623Z,56.40
2018-09-24T05:38:13.988Z,55.00
2018-09-24T05:43:24.047Z,55.10
2018-09-24T05:48:32.908Z,54.60
2018-09-24T05:53:41.840Z,56.40
2018-09-24T05:58:50.799Z,55.90
2018-09-24T06:03:59.683Z,55.00
2018-09-24T06:09:08.663Z,54.70
2018-09-24T06:14:17.677Z,55.30
2018-09-24T06:19:26.508Z,54.70
2018-09-24T06:24:35.949Z,54.20
2018-09-24T06:29:45.232Z,55.20
2018-09-24T06:34:54.294Z,55.50
2018-09-24T06:40:03.313Z,54.20
2018-09-24T06:45:14.250Z,54.40
2018-09-24T06:50:23.311Z,55.00
2018-09-24T06:55:32.795Z,54.70
2018-09-24T07:00:41.714Z,53.90
2018-09-24T07:05:50.710Z,53.20
2018-09-24T07:11:02.099Z,53.10
2018-09-24T07:16:11.051Z,53.50
2018-09-24T07:21:20.086Z,54.00
2018-09-24T07:26:29.094Z,53.20
2018-09-24T07:31:37.984Z,53.50
2018-09-24T07:36:46.935Z,52.80
2018-09-24T07:41:55.840Z,52.90
2018-09-24T07:52:19.656Z,52.70
2018-09-24T07:57:28.895Z,51.80
2018-09-24T08:02:37.818Z,52.30
2018-09-24T08:07:48.100Z,52.80
2018-09-24T08:12:57.409Z,51.10
2018-09-24T08:18:06.374Z,50.20
2018-09-24T08:23:15.412Z,50.70
2018-09-24T08:28:24.278Z,49.90
2018-09-24T08:33:33.565Z,50.40
2018-09-24T08:38:42.468Z,49.00
2018-09-24T08:43:51.529Z,48.60
2018-09-24T08:49:02.422Z,48.50
2018-09-24T08:54:16.796Z,48.50
2018-09-24T08:59:25.775Z,39.90
2018-09-24T09:04:34.605Z,36.70
2018-09-24T09:09:43.932Z,38.90
2018-09-24T09:14:52.892Z,38.90
2018-09-24T09:20:03.519Z,35.90
2018-09-24T09:25:14.378Z,38.20
2018-09-24T09:30:23.429Z,40.50
2018-09-24T09:35:32.384Z,40.40
2018-09-24T09:40:41.635Z,34.90
2018-09-24T09:45:50.671Z,34.30
2018-09-24T09:50:59.880Z,33.70
2018-09-24T09:56:08.923Z,34.50
2018-09-24T10:01:18.857Z,36.70
2018-09-24T10:06:27.847Z,35.20
2018-09-24T10:11:39.385Z,34.90
2018-09-24T10:16:48.389Z,36.80
2018-09-24T10:21:57.391Z,37.10
2018-09-24T10:27:06.424Z,37.90
2018-09-24T10:32:15.715Z,37.90
2018-09-24T10:37:24.654Z,38.20
2018-09-24T10:42:33.649Z,39.00
2018-09-24T10:47:42.679Z,39.20
2018-09-24T10:52:51.705Z,36.40
2018-09-24T10:58:00.648Z,36.40
2018-09-24T11:03:09.631Z,35.30
2018-09-24T11:08:19.517Z,35.90
2018-09-24T11:13:28.596Z,33.60
2018-09-24T11:18:37.575Z,34.30
2018-09-24T11:23:46.481Z,32.60
2018-09-24T11:28:55.533Z,31.80
2018-09-24T11:34:04.559Z,33.80
2018-09-24T11:39:14.504Z,27.80
2018-09-24T11:44:23.609Z,30.50
2018-09-24T11:49:32.428Z,33.20
2018-09-24T11:54:43.339Z,32.70
2018-09-24T11:59:52.267Z,30.80
2018-09-24T12:05:02.804Z,31.70
2018-09-24T12:10:12.007Z,29.80
2018-09-24T12:15:21.233Z,30.80
2018-09-24T12:20:30.235Z,31.40
2018-09-24T12:25:39.080Z,32.20
2018-09-24T12:30:48.500Z,32.90
2018-09-24T12:35:57.504Z,31.30
2018-09-24T12:41:06.846Z,32.90
2018-09-24T12:46:18.007Z,31.90
2018-09-24T12:51:27.545Z,29.80
2018-09-24T12:56:37.440Z,30.40
2018-09-24T13:01:46.654Z,31.80
2018-09-24T13:06:55.932Z,33.10
2018-09-24T13:12:05.170Z,32.00
2018-09-24T13:17:14.215Z,33.00
2018-09-24T13:22:23.189Z,31.80
2018-09-24T13:27:32.163Z,30.70
2018-09-24T13:32:41.206Z,30.10
2018-09-24T13:37:50.380Z,30.00
2018-09-24T13:43:00.178Z,28.80
2018-09-24T13:48:09.398Z,28.20
2018-09-24T13:53:18.264Z,29.90
2018-09-24T13:58:27.414Z,28.60
2018-09-24T14:03:38.039Z,29.60
2018-09-24T14:08:47.283Z,29.60
2018-09-24T14:13:56.663Z,31.00
2018-09-24T14:19:05.688Z,30.20
2018-09-24T14:24:16.628Z,29.40
2018-09-24T14:29:25.511Z,27.40
2018-09-24T14:34:34.514Z,27.40
2018-09-24T14:39:43.827Z,27.80
2018-09-24T14:44:52.657Z,27.00
2018-09-24T14:50:02.273Z,27.20
2018-09-24T14:55:11.335Z,26.60
2018-09-24T15:00:20.776Z,26.90
2018-09-24T15:05:29.796Z,26.70
2018-09-24T15:10:38.661Z,27.50
2018-09-24T15:15:47.615Z,26.40
2018-09-24T15:20:56.917Z,26.60
2018-09-24T15:26:06.699Z,28.40
2018-09-24T15:31:16.323Z,28.40
2018-09-24T15:36:25.216Z,28.20
2018-09-24T15:41:33.977Z,28.30
2018-09-24T15:46:43.825Z,27.60
2018-09-24T15:51:56.286Z,28.30
2018-09-24T15:57:05.231Z,28.80
2018-09-24T16:02:15.176Z,29.90
2018-09-24T16:07:24.547Z,30.10
2018-09-24T16:12:33.781Z,31.10
2018-09-24T16:17:42.953Z,33.40
2018-09-24T16:22:51.919Z,32.80
2018-09-24T16:28:01.144Z,35.00
2018-09-24T16:33:09.984Z,47.70
2018-09-24T16:38:19.356Z,40.20
2018-09-24T16:43:28.316Z,43.30
2018-09-24T16:48:37.260Z,35.30
2018-09-24T16:58:56.182Z,36.20
2018-09-24T17:04:05.145Z,38.40
2018-09-24T17:09:14.916Z,39.20
2018-09-24T17:14:23.876Z,39.60
2018-09-24T17:19:32.964Z,39.80
2018-09-24T17:24:42.234Z,40.20
2018-09-24T17:29:51.821Z,41.30
2018-09-24T17:35:03.355Z,42.10
2018-09-24T17:40:14.084Z,42.50
2018-09-24T17:45:24.118Z,42.20
2018-09-24T17:50:35.013Z,43.00
2018-09-24T17:55:43.962Z,43.10
2018-09-24T18:00:54.456Z,43.20
2018-09-24T18:06:04.061Z,43.80
2018-09-24T18:11:13.221Z,44.40
2018-09-24T18:16:28.948Z,44.60
2018-09-24T18:21:39.112Z,43.60
2018-09-24T18:26:49.054Z,44.70
2018-09-24T18:31:58.604Z,44.50
2018-09-24T18:37:07.563Z,44.20
2018-09-24T18:42:16.329Z,43.40
2018-09-24T18:47:25.280Z,43.80
2018-09-24T18:52:34.339Z,44.30
2018-09-24T18:57:43.352Z,44.10
2018-09-24T19:02:52.240Z,44.60
2018-09-24T19:08:01.205Z,45.00
2018-09-24T19:13:10.938Z,45.70
2018-09-24T19:18:19.940Z,45.50
2018-09-24T19:23:29.278Z,45.20
2018-09-24T19:28:38.276Z,45.70
2018-09-24T19:33:47.323Z,46.80
2018-09-24T19:38:56.127Z,47.70
2018-09-24T19:44:05.144Z,48.20
2018-09-24T19:49:14.073Z,48.40
2018-09-24T19:54:24.379Z,49.50
2018-09-24T19:59:33.208Z,48.20
2018-09-24T20:04:42.047Z,47.80
2018-09-24T20:09:51.024Z,47.20
2018-09-24T20:15:00.904Z,47.00
2018-09-24T20:20:10.035Z,48.20
2018-09-24T20:25:19.664Z,48.90
2018-09-24T20:30:28.631Z,48.60
2018-09-24T20:35:38.026Z,48.00
2018-09-24T20:40:47.224Z,48.40
2018-09-24T20:45:56.185Z,49.40
2018-09-24T20:51:05.022Z,50.00
2018-09-24T20:56:14.023Z,50.20
2018-09-24T21:01:23.163Z,49.70
2018-09-24T21:06:32.172Z,50.20
2018-09-24T21:11:41.941Z,50.20
2018-09-24T21:16:51.008Z,49.80
2018-09-24T21:21:59.945Z,49.10
2018-09-24T21:27:10.743Z,49.10
2018-09-24T21:32:20.007Z,49.20
2018-09-24T21:37:29.358Z,49.20
2018-09-24T21:42:38.544Z,49.10
2018-09-24T21:47:48.313Z,48.40
2018-09-24T21:52:58.444Z,48.80
2018-09-24T21:58:08.419Z,49.20
2018-09-24T22:03:17.655Z,49.00
2018-09-24T22:08:26.923Z,48.70
2018-09-24T22:13:35.818Z,48.70
2018-09-24T22:18:45.408Z,49.00
2018-09-24T22:23:55.289Z,49.60
2018-09-24T22:29:04.540Z,49.80
2018-09-24T22:34:13.523Z,50.40
2018-09-24T22:39:23.721Z,51.00
2018-09-24T22:44:32.527Z,52.20
2018-09-24T22:49:41.931Z,52.60
2018-09-24T22:54:51.140Z,52.30
2018-09-24T23:00:00.721Z,52.00
2018-09-24T23:05:09.553Z,52.30
2018-09-24T23:10:18.579Z,52.10
2018-09-24T23:15:27.595Z,50.90
2018-09-24T23:20:36.707Z,49.40
2018-09-24T23:25:45.808Z,50.40
2018-09-24T23:30:54.904Z,51.00
2018-09-24T23:36:03.798Z,51.60
2018-09-24T23:41:12.883Z,51.30
2018-09-24T23:46:21.851Z,51.00
2018-09-24T23:51:30.788Z,50.80
2018-09-24T23:56:40.263Z,51.00
